CCS3 weather

St. Stephen Airport
St. Stephen, New Brunswick, Canada

Public forecast

Using degrees Celsius for public forecast. Weather courtesy of forecast.io.

METAR (pilot weather report)

Closest report is Fredericton Airport, 49.8 nm (92.2 km) NE. Retrieved 2019/04/21 21:00 UTC (44 minutes ago):

CYFC 212100Z AUTO 18009KT 9SM OVC010 15/14 A3006 RMK SLP183

TAF (pilot weather forecast)

Forecast is more than 6 hours old.

Closest forecast is Fredericton Airport, 49.8 nm (92.2 km) NE. Retrieved 2019/04/21 12:42 UTC (9 hours ago):

TAF CYFC 211140Z 2112/2124 VRB03KT 1/4SM FG VV003 TEMPO 2112/2115 3SM -RA -DZ BR FEW003 OVC008 BECMG 2113/2115 19012KT FM211500 19012KT 5SM -RA BR OVC008 TEMPO 2115/2124 P6SM NSW OVC010 RMK FCST BASED ON AUTO OBS. NXT FCST BY 211800Z